This is the latest recevied weather packets stored in our database for station/object W7TRD. If no packets are shown the sender has not sent any weather packets the latest 1 day(s).
| Time | Temp. | Humidity | Pressure | Rain* | Wind** | Luminosity | Snow |
|---|---|---|---|---|---|---|---|
| 1778089651 | 15° C | 79% | 1022.1 hPa | 0 mm | - | 182 W/m² | - |
| 1778088742 | 15° C | 79% | 1021.7 hPa | 0 mm | - | 181 W/m² | - |
| 1778088439 | 15° C | 78% | 1021.8 hPa | 0 mm | - | 205 W/m² | - |
| 1778086319 | 14.44° C | 80% | 1021.9 hPa | 0 mm | - | 203 W/m² | - |
| 1778086016 | 14.44° C | 80% | 1021.7 hPa | 0 mm | - | 188 W/m² | - |
| 1778085105 | 13.89° C | 81% | 1021.9 hPa | 0 mm | - | 122 W/m² | - |
| 1778084499 | 13.89° C | 82% | 1021.7 hPa | 0 mm | - | 118 W/m² | - |
| 1778084196 | 13.89° C | 81% | 1021.8 hPa | 0 mm | - | 84 W/m² | - |
| 1778082683 | 13.89° C | 81% | 1021.1 hPa | 0 mm | - | 163 W/m² | - |
| 1778080939 | 13.33° C | 84% | 1021.2 hPa | 0 mm | - | 150 W/m² | - |
| 1778080334 | 12.78° C | 85% | 1021.7 hPa | 0 mm | - | 72 W/m² | - |
| 1778080030 | 12.78° C | 86% | 1021.8 hPa | 0 mm | - | 70 W/m² | - |
| 1778079121 | 12.78° C | 86% | 1021.6 hPa | 0 mm | - | 43 W/m² | - |
| 1778078819 | 12.78° C | 86% | 1021.7 hPa | 0 mm | - | 36 W/m² | - |
| 1778077609 | 12.78° C | 87% | 1021.6 hPa | 0 mm | - | 38 W/m² | - |
| 1778077004 | 12.78° C | 87% | 1021.2 hPa | 0 mm | - | 37 W/m² | - |
| 1778076702 | 12.78° C | 87% | 1021.1 hPa | 0 mm | - | 42 W/m² | - |
| 1778076399 | 12.78° C | 87% | 1021 hPa | 0 mm | - | 37 W/m² | - |
| 1778074276 | 12.22° C | 89% | 1021 hPa | 0 mm | - | 18 W/m² | - |
| 1778073974 | 12.22° C | 89% | 1020.7 hPa | 0 mm | - | 16 W/m² | - |
| 1778073064 | 12.22° C | 89% | 1020.5 hPa | 0 mm | - | 8 W/m² | - |
| 1778071552 | 12.22° C | 89% | 1020.3 hPa | 0 mm | - | 1 W/m² | - |
| 1778070947 | 12.78° C | 89% | 1020.2 hPa | 0 mm | - | 0 W/m² | - |
| 1778070040 | 12.78° C | 88% | 1020.2 hPa | 0 mm | - | 0 W/m² | - |
| 1778069737 | 12.78° C | 88% | 1020.4 hPa | 0 mm | - | 0 W/m² | - |
* Rain latest hour (hover to see other rain measurements)
** Current wind speed in m/s (hover to see current wind gust speed)